createdAt,value
2019-06-27T00:00:58.251Z,51.83
2019-06-27T00:03:26.006Z,51.20
2019-06-27T00:05:53.748Z,51.32
2019-06-27T00:08:21.429Z,51.37
2019-06-27T00:10:49.388Z,51.04
2019-06-27T00:13:17.230Z,51.43
2019-06-27T00:15:45.686Z,51.29
2019-06-27T00:18:13.398Z,50.96
2019-06-27T00:20:41.108Z,50.96
2019-06-27T00:23:08.845Z,52.12
2019-06-27T00:25:36.636Z,52.50
2019-06-27T00:28:04.399Z,52.34
2019-06-27T00:30:32.097Z,52.12
2019-06-27T00:32:59.781Z,52.93
2019-06-27T00:35:27.494Z,52.63
2019-06-27T00:37:55.242Z,51.54
2019-06-27T00:40:23.084Z,51.00
2019-06-27T00:42:50.867Z,50.42
2019-06-27T00:45:18.606Z,46.15
2019-06-27T00:47:46.341Z,44.61
2019-06-27T00:50:14.036Z,44.77
2019-06-27T00:52:41.808Z,44.69
2019-06-27T00:55:09.536Z,44.78
2019-06-27T00:57:37.264Z,43.85
2019-06-27T01:00:05.248Z,43.90
2019-06-27T01:02:33.010Z,44.14
2019-06-27T01:05:00.743Z,44.76
2019-06-27T01:07:28.471Z,44.54
2019-06-27T01:09:56.268Z,43.81
2019-06-27T01:12:23.964Z,42.39
2019-06-27T01:14:51.687Z,42.21
2019-06-27T01:17:19.405Z,42.15
2019-06-27T01:19:47.124Z,40.57
2019-06-27T01:22:14.828Z,41.15
2019-06-27T01:24:42.529Z,41.38
2019-06-27T01:27:10.245Z,41.18
2019-06-27T01:29:38.140Z,40.08
2019-06-27T01:32:05.831Z,39.50
2019-06-27T01:34:33.552Z,39.59
2019-06-27T01:37:01.347Z,38.83
2019-06-27T01:39:29.084Z,38.11
2019-06-27T01:41:56.814Z,38.18
2019-06-27T01:44:30.626Z,38.00
2019-06-27T01:46:59.421Z,38.48
2019-06-27T01:49:27.555Z,37.39
2019-06-27T01:51:55.229Z,37.39
2019-06-27T01:54:22.965Z,38.33
2019-06-27T01:56:50.704Z,38.08
2019-06-27T01:59:18.404Z,38.34
2019-06-27T02:01:46.086Z,38.28
2019-06-27T02:04:13.756Z,36.57
2019-06-27T02:06:41.480Z,36.09
2019-06-27T02:09:09.155Z,35.64
2019-06-27T02:11:36.927Z,35.97
2019-06-27T02:14:04.592Z,35.54
2019-06-27T02:16:32.277Z,36.00
2019-06-27T02:18:59.960Z,36.14
2019-06-27T02:21:27.619Z,36.15
2019-06-27T02:23:55.281Z,37.15
2019-06-27T02:26:22.942Z,36.75
2019-06-27T02:28:50.617Z,37.30
2019-06-27T02:31:18.280Z,37.97
2019-06-27T02:33:45.940Z,37.63
2019-06-27T02:36:13.608Z,37.93
2019-06-27T02:38:41.296Z,38.37
2019-06-27T02:41:09.024Z,39.03
2019-06-27T02:43:36.707Z,38.82
2019-06-27T02:46:04.353Z,38.93
2019-06-27T02:48:32.012Z,39.84
2019-06-27T02:50:59.681Z,38.68
2019-06-27T02:53:27.329Z,38.85
2019-06-27T02:55:54.988Z,38.57
2019-06-27T02:58:31.378Z,39.60
2019-06-27T03:00:52.019Z,40.18
2019-06-27T03:03:19.794Z,40.25
2019-06-27T03:05:47.533Z,40.76
2019-06-27T03:08:15.197Z,40.63
2019-06-27T03:10:42.914Z,41.19
2019-06-27T03:13:10.588Z,41.42
2019-06-27T03:15:38.334Z,41.71
2019-06-27T03:18:06.036Z,41.82
2019-06-27T03:20:33.702Z,42.22
2019-06-27T03:23:01.365Z,41.94
2019-06-27T03:25:29.025Z,42.41
2019-06-27T03:27:56.705Z,42.54
2019-06-27T03:30:24.641Z,42.23
2019-06-27T03:32:52.296Z,42.52
2019-06-27T03:35:20.049Z,43.30
2019-06-27T03:37:47.693Z,43.23
2019-06-27T03:40:15.370Z,43.76
2019-06-27T03:42:43.037Z,43.75
2019-06-27T03:45:15.260Z,44.15
2019-06-27T03:47:40.094Z,44.50
2019-06-27T03:50:07.801Z,45.08
2019-06-27T03:52:35.462Z,45.73
2019-06-27T03:55:03.122Z,45.55
2019-06-27T03:57:30.813Z,45.32
2019-06-27T03:59:58.603Z,45.07
2019-06-27T04:02:26.326Z,46.58
2019-06-27T04:04:54.111Z,47.49
2019-06-27T04:07:21.769Z,48.63
2019-06-27T04:09:49.465Z,48.21
2019-06-27T04:12:17.159Z,49.16
2019-06-27T04:14:44.885Z,49.63
2019-06-27T04:17:12.535Z,49.46
2019-06-27T04:19:40.205Z,48.30
2019-06-27T04:22:07.896Z,46.01
2019-06-27T04:24:35.561Z,45.24
2019-06-27T04:27:03.220Z,44.53
2019-06-27T04:29:34.213Z,45.18
2019-06-27T04:32:00.252Z,45.16
2019-06-27T04:34:27.914Z,47.76
2019-06-27T04:36:55.573Z,47.45
2019-06-27T04:39:23.349Z,46.53
2019-06-27T04:41:51.063Z,46.94
2019-06-27T04:44:18.860Z,45.44
2019-06-27T04:46:46.720Z,45.86
2019-06-27T04:49:14.393Z,44.84
2019-06-27T04:51:42.096Z,44.72
2019-06-27T04:54:09.961Z,44.69
2019-06-27T04:56:37.677Z,44.62
2019-06-27T04:59:05.335Z,43.56
2019-06-27T05:01:32.999Z,46.45
2019-06-27T05:04:00.667Z,45.51
2019-06-27T05:06:28.321Z,45.35
2019-06-27T05:08:55.963Z,46.45
2019-06-27T05:11:23.686Z,48.06
2019-06-27T05:13:51.348Z,47.26
2019-06-27T05:16:19.018Z,46.09
2019-06-27T05:18:46.676Z,47.41
2019-06-27T05:21:14.333Z,48.24
2019-06-27T05:23:42.005Z,46.83
2019-06-27T05:26:09.736Z,45.50
2019-06-27T05:28:37.407Z,44.94
2019-06-27T05:31:05.232Z,45.95
2019-06-27T05:33:33.107Z,45.86
2019-06-27T05:36:02.476Z,47.44
2019-06-27T05:38:30.147Z,46.71
2019-06-27T05:40:57.810Z,46.69
2019-06-27T05:43:25.475Z,47.63
2019-06-27T05:45:53.128Z,47.63
2019-06-27T05:48:20.826Z,49.07
2019-06-27T05:50:48.536Z,48.64
2019-06-27T05:53:16.203Z,47.25
2019-06-27T05:55:43.850Z,46.45
2019-06-27T05:58:11.600Z,46.13
2019-06-27T06:00:39.251Z,46.73
2019-06-27T06:03:06.900Z,46.75
2019-06-27T06:05:34.677Z,47.65
2019-06-27T06:08:02.459Z,46.63
2019-06-27T06:10:30.135Z,48.33
2019-06-27T06:12:57.784Z,49.60
2019-06-27T06:15:25.479Z,49.89
2019-06-27T06:17:53.132Z,48.48
2019-06-27T06:20:20.779Z,49.84
2019-06-27T06:22:48.437Z,49.38
2019-06-27T06:25:16.189Z,49.90
2019-06-27T06:27:43.849Z,50.79
2019-06-27T06:30:11.565Z,50.45
2019-06-27T06:32:39.214Z,49.22
2019-06-27T06:35:06.862Z,50.04
2019-06-27T06:37:34.603Z,50.29
2019-06-27T06:40:02.284Z,49.20
2019-06-27T06:42:30.029Z,48.03
2019-06-27T06:44:57.690Z,47.63
2019-06-27T06:47:25.451Z,49.66
2019-06-27T06:49:53.193Z,49.58
2019-06-27T06:52:20.914Z,50.44
2019-06-27T06:54:48.625Z,49.74
2019-06-27T06:57:16.338Z,48.43
2019-06-27T06:59:44.001Z,47.67
2019-06-27T07:02:11.652Z,47.44
2019-06-27T07:04:39.399Z,48.47
2019-06-27T07:07:07.034Z,46.45
2019-06-27T07:09:34.931Z,48.31
2019-06-27T07:12:02.620Z,51.42
2019-06-27T07:14:30.378Z,49.99
2019-06-27T07:16:58.041Z,49.36
2019-06-27T07:19:25.700Z,49.72
2019-06-27T07:21:53.351Z,48.70
2019-06-27T07:24:21.023Z,47.13
2019-06-27T07:26:48.700Z,47.16
2019-06-27T07:29:16.367Z,45.62
2019-06-27T07:31:44.022Z,43.81
2019-06-27T07:34:11.672Z,44.64
2019-06-27T07:36:39.330Z,44.42
2019-06-27T07:39:07.116Z,45.77
2019-06-27T07:41:34.781Z,45.32
2019-06-27T07:44:02.500Z,46.04
2019-06-27T07:46:30.189Z,46.35
2019-06-27T07:48:57.861Z,45.00
2019-06-27T07:51:25.508Z,45.21
2019-06-27T07:53:53.164Z,43.87
2019-06-27T07:56:20.822Z,44.66
2019-06-27T07:58:48.541Z,43.95
2019-06-27T08:01:16.180Z,46.05
2019-06-27T08:03:43.836Z,46.84
2019-06-27T08:06:11.501Z,45.48
2019-06-27T08:08:39.160Z,45.92
2019-06-27T08:11:06.816Z,44.37
2019-06-27T08:13:34.468Z,44.20
2019-06-27T08:16:02.143Z,42.95
2019-06-27T08:18:29.795Z,41.33
2019-06-27T08:20:57.488Z,41.74
2019-06-27T08:23:40.455Z,41.42
2019-06-27T08:25:54.539Z,41.17
2019-06-27T08:28:22.305Z,40.46
2019-06-27T08:30:50.606Z,41.21
2019-06-27T08:33:18.288Z,41.85
2019-06-27T08:35:46.051Z,41.96
2019-06-27T08:38:13.712Z,43.01
2019-06-27T08:40:41.406Z,42.13
2019-06-27T08:43:09.071Z,42.15
2019-06-27T08:45:36.927Z,42.18
2019-06-27T08:48:04.600Z,40.42
2019-06-27T08:50:32.252Z,38.00
2019-06-27T08:53:01.442Z,40.53
2019-06-27T08:55:29.464Z,41.66
2019-06-27T08:57:57.197Z,41.63
2019-06-27T09:00:24.962Z,43.49
2019-06-27T09:02:52.616Z,43.28
2019-06-27T09:05:20.306Z,42.81
2019-06-27T09:07:48.096Z,41.37
2019-06-27T09:10:15.760Z,41.55
2019-06-27T09:12:43.424Z,41.11
2019-06-27T09:15:11.115Z,40.82
2019-06-27T09:17:38.903Z,38.59
2019-06-27T09:20:06.593Z,39.36
2019-06-27T09:22:34.272Z,38.31
2019-06-27T09:25:02.170Z,37.21
2019-06-27T09:27:35.120Z,37.00
2019-06-27T09:30:02.794Z,35.67
2019-06-27T09:32:30.452Z,34.72
2019-06-27T09:34:58.104Z,35.10
2019-06-27T09:37:25.762Z,36.05
2019-06-27T09:39:53.425Z,35.71
2019-06-27T09:42:21.071Z,35.30
2019-06-27T09:44:48.732Z,35.58
2019-06-27T09:47:16.399Z,35.37
2019-06-27T09:49:44.082Z,34.34
2019-06-27T09:52:11.748Z,35.40
2019-06-27T09:54:39.413Z,33.00
2019-06-27T09:57:07.081Z,34.18
2019-06-27T09:59:34.751Z,33.52
2019-06-27T10:02:02.433Z,32.80
2019-06-27T10:04:30.123Z,34.11
2019-06-27T10:06:57.880Z,34.60
2019-06-27T10:09:25.535Z,32.71
2019-06-27T10:11:53.562Z,31.49
2019-06-27T10:14:21.349Z,30.71
2019-06-27T10:16:49.001Z,32.45
2019-06-27T10:19:16.740Z,32.28
2019-06-27T10:21:44.412Z,30.58
2019-06-27T10:24:12.063Z,30.99
2019-06-27T10:26:39.731Z,33.44
2019-06-27T10:29:07.398Z,32.44
2019-06-27T10:31:35.075Z,31.31
2019-06-27T10:34:02.723Z,30.21
2019-06-27T10:36:30.400Z,30.15
2019-06-27T10:38:58.052Z,31.25
2019-06-27T10:41:25.709Z,31.00
2019-06-27T10:43:53.359Z,32.78
2019-06-27T10:46:21.012Z,33.37
2019-06-27T10:48:48.668Z,33.33
2019-06-27T10:51:16.343Z,31.77
2019-06-27T10:53:44.019Z,32.00
2019-06-27T10:56:11.687Z,30.90
2019-06-27T10:58:39.440Z,31.13
2019-06-27T11:01:07.119Z,30.23
2019-06-27T11:03:38.211Z,30.36
2019-06-27T11:06:04.162Z,29.98
2019-06-27T11:08:31.813Z,28.55
2019-06-27T11:10:59.481Z,28.71
2019-06-27T11:13:27.151Z,30.23
2019-06-27T11:15:54.813Z,29.13
2019-06-27T11:18:22.537Z,29.45
2019-06-27T11:20:50.204Z,29.63
2019-06-27T11:23:17.871Z,29.36
2019-06-27T11:25:45.526Z,29.02
2019-06-27T11:28:13.183Z,29.96
2019-06-27T11:30:40.854Z,29.94
2019-06-27T11:33:08.499Z,30.87
2019-06-27T11:35:36.191Z,29.82
2019-06-27T11:38:03.843Z,30.11
2019-06-27T11:40:31.493Z,29.65
2019-06-27T11:42:59.163Z,29.95
2019-06-27T11:45:26.824Z,29.31
2019-06-27T11:47:54.495Z,28.72
2019-06-27T11:50:22.145Z,28.71
2019-06-27T11:52:49.814Z,28.70
2019-06-27T11:55:17.466Z,27.92
2019-06-27T11:57:45.126Z,27.62
2019-06-27T12:00:12.812Z,27.66
2019-06-27T12:02:40.670Z,27.00
2019-06-27T12:05:08.372Z,27.40
2019-06-27T12:07:36.039Z,25.96
2019-06-27T12:10:03.702Z,27.67
2019-06-27T12:12:31.367Z,25.18
2019-06-27T12:14:59.034Z,26.25
2019-06-27T12:17:26.682Z,24.94
2019-06-27T12:19:54.362Z,24.80
2019-06-27T12:22:22.021Z,23.61
2019-06-27T12:24:54.822Z,23.34
2019-06-27T12:27:22.499Z,24.94
2019-06-27T12:29:50.195Z,25.40
2019-06-27T12:32:17.859Z,25.03
2019-06-27T12:34:45.572Z,23.43
2019-06-27T12:37:13.274Z,23.07
2019-06-27T12:39:40.955Z,23.58
2019-06-27T12:42:08.617Z,23.03
2019-06-27T12:44:36.271Z,23.27
2019-06-27T12:47:03.935Z,23.26
2019-06-27T12:49:49.990Z,22.93
2019-06-27T12:52:00.954Z,23.99
2019-06-27T12:54:28.629Z,23.70
2019-06-27T12:56:56.311Z,23.35
2019-06-27T12:59:23.988Z,23.65
2019-06-27T13:01:51.658Z,23.20
2019-06-27T13:04:23.867Z,23.62
2019-06-27T13:06:48.696Z,23.87
2019-06-27T13:09:16.397Z,25.33
2019-06-27T13:11:44.108Z,24.02
2019-06-27T13:14:11.868Z,23.96
2019-06-27T13:16:39.514Z,24.20
2019-06-27T13:19:07.179Z,25.11
2019-06-27T13:21:34.874Z,24.83
2019-06-27T13:24:02.590Z,24.62
2019-06-27T13:26:30.255Z,25.08
2019-06-27T13:28:58.001Z,25.49
2019-06-27T13:31:25.686Z,24.78
2019-06-27T13:33:53.352Z,23.48
2019-06-27T13:36:21.001Z,23.51
2019-06-27T13:38:48.651Z,24.11
2019-06-27T13:41:16.299Z,23.95
2019-06-27T13:43:43.984Z,24.17
2019-06-27T13:46:11.654Z,24.00
2019-06-27T13:48:39.311Z,24.15
2019-06-27T13:51:07.048Z,23.75
2019-06-27T13:53:34.694Z,24.67
2019-06-27T13:56:02.381Z,25.09
2019-06-27T13:58:30.099Z,24.29
2019-06-27T14:00:57.792Z,24.06
2019-06-27T14:03:25.436Z,23.95
2019-06-27T14:05:53.108Z,23.95
2019-06-27T14:08:20.744Z,24.22
2019-06-27T14:10:48.397Z,24.07
2019-06-27T14:13:16.055Z,24.01
2019-06-27T14:15:43.728Z,24.45
2019-06-27T14:18:11.404Z,24.43
2019-06-27T14:20:39.063Z,25.42
2019-06-27T14:23:06.702Z,23.81
2019-06-27T14:25:34.362Z,24.76
2019-06-27T14:28:02.013Z,24.67
2019-06-27T14:30:29.670Z,23.83
2019-06-27T14:32:57.320Z,23.75
2019-06-27T14:35:24.990Z,24.65
2019-06-27T14:37:52.655Z,25.16
2019-06-27T14:40:20.640Z,24.23
2019-06-27T14:42:48.349Z,24.67
2019-06-27T14:45:16.015Z,24.52
2019-06-27T14:47:43.664Z,24.95
2019-06-27T14:50:11.319Z,24.62
2019-06-27T14:52:38.963Z,24.76
2019-06-27T14:55:06.624Z,24.47
2019-06-27T14:57:34.283Z,24.54
2019-06-27T15:00:01.961Z,24.80
2019-06-27T15:02:29.617Z,24.40
2019-06-27T15:04:57.266Z,24.19
2019-06-27T15:07:24.952Z,24.71
2019-06-27T15:09:52.606Z,24.46
2019-06-27T15:12:20.550Z,25.40
2019-06-27T15:14:50.567Z,25.61
2019-06-27T15:17:17.550Z,25.24
2019-06-27T15:19:45.200Z,25.52
2019-06-27T15:22:12.856Z,24.91
2019-06-27T15:24:40.529Z,25.14
2019-06-27T15:27:08.197Z,25.43
2019-06-27T15:29:35.863Z,25.41
2019-06-27T15:32:03.549Z,25.38
2019-06-27T15:34:31.197Z,25.43
2019-06-27T15:36:58.863Z,26.01
2019-06-27T15:39:26.508Z,25.89
2019-06-27T15:41:54.165Z,25.36
2019-06-27T15:44:21.818Z,25.76
2019-06-27T15:46:49.550Z,26.24
2019-06-27T15:49:17.302Z,26.54
2019-06-27T15:51:44.973Z,26.56
2019-06-27T15:54:12.617Z,26.34
2019-06-27T15:56:40.280Z,26.51
2019-06-27T15:59:07.923Z,26.14
2019-06-27T16:01:35.578Z,26.75
2019-06-27T16:04:03.239Z,27.10
2019-06-27T16:06:30.891Z,26.88
2019-06-27T16:08:58.548Z,27.12
2019-06-27T16:11:26.205Z,26.92
2019-06-27T16:13:53.884Z,26.44
2019-06-27T16:16:21.555Z,26.25
2019-06-27T16:18:49.210Z,26.86
2019-06-27T16:21:16.881Z,27.10
2019-06-27T16:23:44.537Z,26.94
2019-06-27T16:26:12.246Z,26.23
2019-06-27T16:28:39.953Z,26.70
2019-06-27T16:31:07.601Z,26.07
2019-06-27T16:33:35.274Z,26.73
2019-06-27T16:36:02.923Z,27.12
2019-06-27T16:38:30.591Z,26.67
2019-06-27T16:40:58.255Z,25.87
2019-06-27T16:43:25.946Z,26.24
2019-06-27T16:45:53.609Z,25.56
2019-06-27T16:48:21.280Z,25.47
2019-06-27T16:50:48.951Z,24.79
2019-06-27T16:53:16.619Z,26.06
2019-06-27T16:55:44.283Z,25.48
2019-06-27T16:58:11.943Z,27.04
2019-06-27T17:00:39.619Z,25.63
2019-06-27T17:03:07.283Z,26.24
2019-06-27T17:05:34.959Z,26.10
2019-06-27T17:08:02.641Z,26.22
2019-06-27T17:10:30.311Z,25.21
2019-06-27T17:12:57.986Z,25.37
2019-06-27T17:15:25.649Z,25.71
2019-06-27T17:17:53.312Z,26.56
2019-06-27T17:20:20.974Z,26.53
2019-06-27T17:22:48.636Z,26.10
2019-06-27T17:25:16.275Z,26.08
2019-06-27T17:27:43.948Z,25.81
2019-06-27T17:30:13.392Z,26.04
2019-06-27T17:32:41.071Z,26.39
2019-06-27T17:35:08.734Z,26.08
2019-06-27T17:37:36.399Z,26.08
2019-06-27T17:40:04.059Z,26.76
2019-06-27T17:42:31.704Z,26.95
2019-06-27T17:44:59.360Z,26.59
2019-06-27T17:47:27.023Z,26.65
2019-06-27T17:49:54.675Z,27.35
2019-06-27T17:52:22.338Z,26.94
2019-06-27T17:54:50.063Z,27.12
2019-06-27T17:57:17.742Z,27.12
2019-06-27T17:59:45.424Z,27.45
2019-06-27T18:02:13.076Z,27.13
2019-06-27T18:04:40.759Z,27.87
2019-06-27T18:07:14.196Z,27.58
2019-06-27T18:09:37.811Z,28.24
2019-06-27T18:12:05.468Z,28.00
2019-06-27T18:14:33.164Z,28.45
2019-06-27T18:17:00.832Z,28.71
2019-06-27T18:19:28.501Z,29.52
2019-06-27T18:21:56.202Z,29.17
2019-06-27T18:24:23.966Z,29.05
2019-06-27T18:26:57.125Z,29.67
2019-06-27T18:29:24.791Z,30.99
2019-06-27T18:31:52.448Z,30.85
2019-06-27T18:34:25.211Z,29.92
2019-06-27T18:36:52.948Z,30.11
2019-06-27T18:39:20.610Z,29.89
2019-06-27T18:41:48.266Z,30.03
2019-06-27T18:44:15.928Z,30.73
2019-06-27T18:46:43.670Z,31.52
2019-06-27T18:49:11.528Z,31.55
2019-06-27T18:51:39.190Z,31.23
2019-06-27T18:54:06.873Z,31.85
2019-06-27T18:56:34.543Z,32.04
2019-06-27T18:59:02.211Z,33.73
2019-06-27T19:01:29.864Z,32.01
2019-06-27T19:03:57.559Z,32.78
2019-06-27T19:06:25.235Z,33.12
2019-06-27T19:08:52.979Z,33.49
2019-06-27T19:11:20.636Z,35.11
2019-06-27T19:13:48.297Z,33.37
2019-06-27T19:16:15.972Z,33.40
2019-06-27T19:18:45.532Z,34.63
2019-06-27T19:21:18.197Z,34.10
2019-06-27T19:23:52.575Z,35.37
2019-06-27T19:26:20.243Z,35.70
2019-06-27T19:28:47.931Z,35.99
2019-06-27T19:31:15.582Z,36.65
2019-06-27T19:33:43.249Z,37.94
2019-06-27T19:36:10.899Z,37.11
2019-06-27T19:38:38.588Z,36.67
2019-06-27T19:41:06.231Z,37.62
2019-06-27T19:43:33.891Z,38.22
2019-06-27T19:46:01.572Z,39.14
2019-06-27T19:48:29.253Z,39.71
2019-06-27T19:50:56.914Z,38.44
2019-06-27T19:53:24.587Z,38.62
2019-06-27T19:55:52.235Z,40.30
2019-06-27T19:58:19.914Z,39.68
2019-06-27T20:00:47.576Z,39.02
2019-06-27T20:03:15.235Z,39.94
2019-06-27T20:05:42.908Z,40.38
2019-06-27T20:08:18.915Z,39.06
2019-06-27T20:10:39.917Z,39.81
2019-06-27T20:13:07.602Z,39.51
2019-06-27T20:15:35.347Z,40.26
2019-06-27T20:18:03.015Z,39.97
2019-06-27T20:20:30.691Z,40.21
2019-06-27T20:22:58.343Z,40.51
2019-06-27T20:25:26.021Z,40.91
2019-06-27T20:27:53.673Z,40.83
2019-06-27T20:30:21.411Z,40.90
2019-06-27T20:32:49.055Z,41.57
2019-06-27T20:35:16.714Z,41.66
2019-06-27T20:37:44.469Z,41.50
2019-06-27T20:40:12.112Z,42.47
2019-06-27T20:42:39.808Z,42.95
2019-06-27T20:45:07.532Z,42.17
2019-06-27T20:47:35.177Z,42.72
2019-06-27T20:50:02.834Z,42.48
2019-06-27T20:52:30.487Z,43.02
2019-06-27T20:54:58.160Z,42.50
2019-06-27T20:57:25.896Z,43.28
2019-06-27T20:59:53.582Z,43.07
2019-06-27T21:02:21.233Z,43.39
2019-06-27T21:04:48.897Z,43.13
2019-06-27T21:07:16.552Z,43.52
2019-06-27T21:09:44.224Z,42.50
2019-06-27T21:12:11.882Z,43.15
2019-06-27T21:14:39.569Z,43.39
2019-06-27T21:17:07.236Z,43.42
2019-06-27T21:19:34.901Z,43.40
2019-06-27T21:22:03.660Z,43.40
2019-06-27T21:24:31.351Z,42.93
2019-06-27T21:26:59.035Z,43.60
2019-06-27T21:29:26.751Z,43.27
2019-06-27T21:31:54.542Z,43.70
2019-06-27T21:34:22.378Z,44.24
2019-06-27T21:36:50.167Z,44.20
2019-06-27T21:39:17.822Z,44.47
2019-06-27T21:41:45.482Z,44.27
2019-06-27T21:44:13.149Z,44.91
2019-06-27T21:46:40.808Z,45.02
2019-06-27T21:49:11.364Z,45.36
2019-06-27T21:51:37.831Z,45.44
2019-06-27T21:54:05.479Z,45.76
2019-06-27T21:56:33.162Z,45.63
2019-06-27T21:59:00.902Z,45.50
2019-06-27T22:01:28.584Z,45.82
2019-06-27T22:03:56.303Z,46.55
2019-06-27T22:06:23.967Z,45.91
2019-06-27T22:08:51.616Z,47.25
2019-06-27T22:11:19.284Z,47.86
2019-06-27T22:13:47.061Z,47.24
2019-06-27T22:16:15.033Z,47.52
2019-06-27T22:18:42.717Z,47.45
2019-06-27T22:21:10.381Z,47.34
2019-06-27T22:23:38.031Z,47.14
2019-06-27T22:26:05.691Z,47.20
2019-06-27T22:28:33.391Z,47.60
2019-06-27T22:31:01.146Z,48.43
2019-06-27T22:33:28.785Z,48.58
2019-06-27T22:35:56.431Z,48.59
2019-06-27T22:38:29.380Z,48.77
2019-06-27T22:41:02.388Z,48.67
2019-06-27T22:43:35.257Z,48.85
2019-06-27T22:46:08.188Z,49.22
2019-06-27T22:48:35.483Z,49.35
2019-06-27T22:51:15.310Z,49.04
2019-06-27T22:53:49.693Z,49.50
2019-06-27T22:56:17.398Z,50.08
2019-06-27T22:58:45.031Z,50.08
2019-06-27T23:01:12.691Z,50.65
2019-06-27T23:03:40.349Z,50.04
2019-06-27T23:06:08.040Z,50.43
2019-06-27T23:08:35.693Z,50.49
2019-06-27T23:11:03.423Z,50.44
2019-06-27T23:13:31.135Z,51.31
2019-06-27T23:15:58.787Z,51.47
2019-06-27T23:18:26.451Z,51.58
2019-06-27T23:20:54.092Z,51.58
2019-06-27T23:23:21.808Z,51.43
2019-06-27T23:25:49.476Z,52.02
2019-06-27T23:28:17.295Z,52.00
2019-06-27T23:30:44.958Z,52.69
2019-06-27T23:33:12.623Z,52.58
2019-06-27T23:35:40.287Z,52.87
2019-06-27T23:38:07.939Z,53.08
2019-06-27T23:40:35.675Z,52.95
2019-06-27T23:43:03.381Z,53.45
2019-06-27T23:45:31.257Z,53.42
2019-06-27T23:47:58.996Z,53.54
2019-06-27T23:50:26.647Z,53.90
2019-06-27T23:52:54.332Z,53.33
2019-06-27T23:55:22.501Z,53.27
2019-06-27T23:57:50.188Z,54.71
